Time;durP1;ratioP1;P1;durP2;ratioP2;P2;SDS_P1;SDS_P2;PMS_P1;PMS_P2;Temp;Humidity;BMP_temperature;BMP_pressure;BME280_temperature;BME280_humidity;BME280_pressure;Samples;Min_cycle;Max_cycle;Signal;HPM_P1;HPM_P2
2021/12/05 00:23:00;;;;;;;73.87;31.33;;;1.50;99.90;;;;;;10421521;28;20209;-77
2021/12/05 01:03:07;;;;;;;54.97;28.33;;;1.40;99.90;;;;;;10547548;28;20197;-78
2021/12/05 01:13:29;;;;;;;54.47;26.80;;;1.50;99.90;;;;;;10562978;28;20240;-80
2021/12/05 01:18:53;;;;;;;59.23;27.90;;;1.50;99.90;;;;;;10533867;28;20222;-80
2021/12/05 01:24:48;;;;;;;50.23;25.50;;;1.50;99.90;;;;;;10530383;28;20198;-80
2021/12/05 01:30:33;;;;;;;58.17;29.20;;;1.40;99.90;;;;;;10548705;28;20252;-79
2021/12/05 01:47:46;;;;;;;58.57;27.70;;;1.30;99.90;;;;;;10529842;28;20505;-79
2021/12/05 01:53:25;;;;;;;66.93;30.97;;;1.30;99.90;;;;;;10559022;28;20262;-79
2021/12/05 02:44:10;;;;;;;70.03;31.33;;;1.20;99.90;;;;;;10377855;28;20515;-79
2021/12/05 02:49:36;;;;;;;75.50;30.57;;;1.10;99.90;;;;;;10490811;28;20251;-78
2021/12/05 02:55:08;;;;;;;63.90;31.23;;;1.10;99.90;;;;;;10544911;28;20203;-79
2021/12/05 03:01:43;;;;;;;75.93;33.20;;;1.10;99.90;;;;;;10555242;28;20257;-81
2021/12/05 03:06:32;;;;;;;69.50;30.53;;;1.10;99.90;;;;;;10525109;28;20535;-78
2021/12/05 03:11:55;;;;;;;67.57;29.57;;;1.10;99.90;;;;;;10520567;28;20280;-79
2021/12/05 03:17:17;;;;;;;67.00;30.30;;;1.20;99.90;;;;;;10535447;28;20241;-79
2021/12/05 03:22:40;;;;;;;55.93;28.50;;;1.10;99.90;;;;;;10566713;28;20193;-79
2021/12/05 03:28:05;;;;;;;51.03;26.10;;;1.10;99.90;;;;;;10552227;28;20229;-78
2021/12/05 03:33:29;;;;;;;57.60;27.03;;;1.10;99.90;;;;;;10534802;28;20204;-79
2021/12/05 03:38:51;;;;;;;55.70;27.90;;;1.10;99.90;;;;;;10537393;28;20435;-79
2021/12/05 03:44:18;;;;;;;61.23;28.67;;;1.10;99.90;;;;;;10551700;28;20405;-80
2021/12/05 03:49:40;;;;;;;58.33;29.90;;;1.10;99.90;;;;;;10550447;28;20232;-78
2021/12/05 03:55:06;;;;;;;45.20;26.17;;;1.00;99.90;;;;;;10531369;28;20428;-79
2021/12/05 04:00:33;;;;;;;49.97;26.83;;;1.10;99.90;;;;;;10547914;28;20208;-79
2021/12/05 04:05:57;;;;;;;57.87;28.47;;;1.00;99.90;;;;;;10533486;28;20522;-79
2021/12/05 04:11:29;;;;;;;52.80;28.83;;;0.90;99.90;;;;;;10537104;28;20201;-79
2021/12/05 04:16:52;;;;;;;50.50;28.20;;;0.80;99.90;;;;;;10550188;28;20288;-79
2021/12/05 04:22:16;;;;;;;53.37;28.83;;;0.70;99.90;;;;;;10530948;28;20202;-78
2021/12/05 04:27:39;;;;;;;58.17;28.97;;;0.70;99.90;;;;;;10564902;28;20518;-79
2021/12/05 04:33:03;;;;;;;56.53;29.70;;;0.70;99.90;;;;;;10532375;28;20205;-79
2021/12/05 04:38:27;;;;;;;54.50;29.30;;;0.60;99.90;;;;;;10535348;28;20256;-79
2021/12/05 04:43:50;;;;;;;53.37;28.93;;;0.60;99.90;;;;;;10549135;28;20191;-79
2021/12/05 04:49:14;;;;;;;76.70;39.93;;;0.50;99.90;;;;;;10548604;28;20202;-79
2021/12/05 04:54:37;;;;;;;70.13;40.77;;;0.50;99.90;;;;;;10528676;28;20379;-79
2021/12/05 05:00:01;;;;;;;79.93;41.47;;;0.50;99.90;;;;;;10534920;28;20448;-79
2021/12/05 05:05:28;;;;;;;75.53;44.43;;;0.60;99.90;;;;;;10531450;28;20202;-80
2021/12/05 05:10:50;;;;;;;748.37;225.67;;;0.50;99.90;;;;;;10534356;28;20202;-79
2021/12/05 05:16:14;;;;;;;956.10;373.33;;;0.50;99.90;;;;;;10562753;28;20461;-78
2021/12/05 05:54:48;;;;;;;66.17;35.40;;;0.40;99.90;;;;;;10543551;28;20210;-78
2021/12/05 06:00:17;;;;;;;83.20;39.67;;;0.30;99.90;;;;;;10546382;28;20406;-79
2021/12/05 06:05:39;;;;;;;82.80;39.07;;;0.20;99.90;;;;;;10561310;28;20365;-79
2021/12/05 06:11:06;;;;;;;132.10;48.87;;;0.20;99.90;;;;;;10529471;28;20389;-79
2021/12/05 06:16:28;;;;;;;98.83;41.00;;;0.20;99.90;;;;;;10561102;28;20253;-79
2021/12/05 06:21:50;;;;;;;89.87;48.00;;;0.20;99.90;;;;;;10537110;28;20296;-79
2021/12/05 06:27:12;;;;;;;64.07;36.13;;;0.20;99.90;;;;;;10546303;28;20196;-79
2021/12/05 06:49:10;;;;;;;61.43;31.53;;;0.10;99.90;;;;;;10569111;28;20231;-79
2021/12/05 06:54:32;;;;;;;58.53;32.90;;;0.10;99.90;;;;;;10532413;28;20210;-79
2021/12/05 06:59:54;;;;;;;60.27;32.70;;;0.10;99.90;;;;;;10536025;28;20297;-79
2021/12/05 07:06:02;;;;;;;80.53;41.70;;;0.10;99.90;;;;;;10536574;28;20220;-80
2021/12/05 07:11:35;;;;;;;87.53;45.30;;;0.10;99.90;;;;;;10567032;28;20201;-79
2021/12/05 07:17:07;;;;;;;103.00;53.07;;;0.20;99.90;;;;;;10538625;28;20435;-79
2021/12/05 07:22:42;;;;;;;144.23;63.87;;;0.10;99.90;;;;;;10550002;28;20396;-78
2021/12/05 07:45:07;;;;;;;117.50;52.37;;;0.20;99.90;;;;;;10548249;28;20213;-80
2021/12/05 07:50:40;;;;;;;99.87;49.30;;;0.30;99.90;;;;;;10534378;28;20310;-79
2021/12/05 07:56:11;;;;;;;141.10;73.63;;;0.30;99.90;;;;;;10550355;28;20221;-80
2021/12/05 08:18:36;;;;;;;90.30;35.87;;;0.60;99.90;;;;;;10550093;28;20546;-79
2021/12/05 08:23:59;;;;;;;122.73;49.90;;;0.70;99.90;;;;;;10518905;28;20218;-79
2021/12/05 08:29:31;;;;;;;149.63;56.47;;;0.70;99.90;;;;;;10529455;28;20430;-79
2021/12/05 08:46:21;;;;;;;86.67;37.47;;;0.90;99.90;;;;;;10546051;28;20278;-79
2021/12/05 10:34:25;;;;;;;62.80;31.30;;;1.70;99.90;;;;;;10536090;28;20194;-79
2021/12/05 10:40:01;;;;;;;59.40;30.87;;;1.70;99.90;;;;;;10568922;28;20233;-79
2021/12/05 10:45:29;;;;;;;60.63;33.47;;;1.80;99.90;;;;;;10536396;28;20203;-78
2021/12/05 10:50:55;;;;;;;61.90;31.87;;;1.90;99.90;;;;;;10553350;28;20371;-78
2021/12/05 11:01:41;;;;;;;62.43;33.23;;;2.00;99.90;;;;;;10552535;28;20207;-79
2021/12/05 11:07:08;;;;;;;68.07;35.17;;;2.00;99.90;;;;;;10548744;28;20203;-79
2021/12/05 11:12:34;;;;;;;62.43;31.47;;;2.00;99.90;;;;;;10549699;28;20222;-78
2021/12/05 11:17:56;;;;;;;56.43;31.07;;;2.10;99.90;;;;;;10521557;28;20283;-78
2021/12/05 11:23:18;;;;;;;84.50;42.03;;;2.20;99.90;;;;;;10552636;28;20195;-80
2021/12/05 11:28:53;;;;;;;134.47;57.33;;;2.20;99.90;;;;;;10533109;28;20194;-78
2021/12/05 11:34:29;;;;;;;107.27;47.73;;;2.30;99.90;;;;;;10548229;28;20208;-80
2021/12/05 11:40:04;;;;;;;61.83;32.43;;;2.30;99.90;;;;;;10566665;28;20416;-79
2021/12/05 11:45:27;;;;;;;63.17;32.80;;;2.30;99.90;;;;;;10548061;28;20211;-79
2021/12/05 11:50:49;;;;;;;77.57;36.73;;;2.30;99.90;;;;;;10548171;28;20205;-79
2021/12/05 11:56:21;;;;;;;65.30;31.23;;;2.40;99.90;;;;;;10546518;28;20194;-79
2021/12/05 12:01:46;;;;;;;76.03;32.73;;;2.50;99.90;;;;;;10547737;28;20279;-78
2021/12/05 12:07:35;;;;;;;60.83;30.40;;;2.50;99.90;;;;;;10550138;28;20394;-79
2021/12/05 12:13:10;;;;;;;58.73;31.03;;;2.40;99.90;;;;;;10565400;28;20194;-79
2021/12/05 12:18:37;;;;;;;56.07;28.57;;;2.40;99.90;;;;;;10515735;28;20559;-79
2021/12/05 12:23:59;;;;;;;73.40;33.77;;;2.40;99.90;;;;;;10549976;28;20199;-78
2021/12/05 12:29:23;;;;;;;58.87;28.60;;;2.30;99.90;;;;;;10550266;28;20200;-79
2021/12/05 12:34:45;;;;;;;56.33;27.57;;;2.20;99.90;;;;;;10501313;28;20194;-79
2021/12/05 12:40:08;;;;;;;70.77;37.23;;;2.20;99.90;;;;;;10531349;28;20250;-79
2021/12/05 12:45:39;;;;;;;88.00;37.73;;;2.20;99.90;;;;;;10530178;28;20201;-79
2021/12/05 12:51:01;;;;;;;95.73;37.47;;;2.10;99.90;;;;;;10563996;28;20247;-78
2021/12/05 12:56:24;;;;;;;83.97;39.17;;;2.00;99.90;;;;;;10563819;28;20219;-79
2021/12/05 13:09:57;;;;;;;66.30;34.37;;;1.90;99.90;;;;;;10544616;28;20207;-78
2021/12/05 13:13:15;;;;;;;80.63;38.63;;;1.80;99.90;;;;;;10525330;28;20205;-78
2021/12/05 13:18:40;;;;;;;96.33;40.80;;;1.80;99.90;;;;;;10516896;28;20233;-78
2021/12/05 13:24:42;;;;;;;86.73;44.23;;;1.70;99.90;;;;;;10544669;28;20199;-78
2021/12/05 13:30:04;;;;;;;81.57;44.63;;;1.70;99.90;;;;;;10393222;28;20555;-78
2021/12/05 13:35:32;;;;;;;70.20;36.50;;;1.50;99.90;;;;;;10392594;28;20497;-78
2021/12/05 13:40:56;;;;;;;63.43;31.83;;;1.40;99.90;;;;;;10392708;28;20244;-79
2021/12/05 13:46:38;;;;;;;78.07;38.30;;;1.30;99.90;;;;;;10362504;28;20228;-78
2021/12/05 13:52:32;;;;;;;72.40;36.20;;;1.10;99.90;;;;;;10362472;28;20223;-79
2021/12/05 13:58:46;;;;;;;80.20;34.77;;;1.00;99.90;;;;;;10375762;28;20250;-79
2021/12/05 14:04:18;;;;;;;67.23;34.47;;;0.90;99.90;;;;;;10469464;28;20206;-79
2021/12/05 14:09:43;;;;;;;74.57;34.60;;;0.90;99.90;;;;;;10546388;28;20260;-79
2021/12/05 14:15:07;;;;;;;89.17;40.40;;;0.80;99.90;;;;;;10540771;28;20209;-78
2021/12/05 14:20:30;;;;;;;181.60;70.63;;;0.80;99.90;;;;;;10561291;28;20229;-79
2021/12/05 14:25:52;;;;;;;150.13;64.03;;;0.80;99.90;;;;;;10542988;28;20208;-78
2021/12/05 14:31:26;;;;;;;165.57;64.53;;;0.80;99.90;;;;;;10561171;28;20284;-79
2021/12/05 14:36:53;;;;;;;190.77;65.80;;;0.80;99.90;;;;;;10542083;28;20443;-78
2021/12/05 14:42:18;;;;;;;156.67;65.07;;;0.80;99.90;;;;;;10540208;28;20194;-79
2021/12/05 14:47:44;;;;;;;141.30;56.00;;;0.60;99.90;;;;;;10560719;28;20237;-79
2021/12/05 14:53:09;;;;;;;208.43;76.23;;;0.60;99.90;;;;;;10531791;28;20228;-79
2021/12/05 14:58:31;;;;;;;135.00;54.93;;;0.60;99.90;;;;;;10560548;28;20245;-79
2021/12/05 15:03:53;;;;;;;129.93;49.87;;;0.60;99.90;;;;;;10544829;28;20200;-79
2021/12/05 15:09:34;;;;;;;253.13;94.17;;;0.70;99.90;;;;;;10518760;28;20194;-79
2021/12/05 15:15:03;;;;;;;145.03;57.53;;;0.80;99.90;;;;;;10552994;28;20201;-78
2021/12/05 15:20:29;;;;;;;93.10;40.57;;;0.80;99.90;;;;;;10552512;28;20562;-80
2021/12/05 15:25:51;;;;;;;88.50;38.63;;;0.90;99.90;;;;;;10550997;28;20425;-79
2021/12/05 15:31:14;;;;;;;78.50;35.73;;;0.90;99.90;;;;;;10535372;28;20205;-81
2021/12/05 15:36:36;;;;;;;92.17;37.93;;;1.00;99.90;;;;;;10566630;28;20419;-80
2021/12/05 15:41:59;;;;;;;89.67;39.43;;;1.00;99.90;;;;;;10551480;28;20218;-78
2021/12/05 15:47:32;;;;;;;112.20;47.43;;;1.00;99.90;;;;;;10566750;28;20201;-79
2021/12/05 15:52:58;;;;;;;129.60;50.43;;;1.00;99.90;;;;;;10534201;28;20280;-79
2021/12/05 15:58:30;;;;;;;126.10;51.27;;;0.90;99.90;;;;;;10547484;28;20275;-80
2021/12/05 16:03:56;;;;;;;101.50;44.93;;;0.90;99.90;;;;;;10520255;28;20381;-79
2021/12/05 16:09:20;;;;;;;108.57;44.13;;;1.00;99.90;;;;;;10547600;28;20202;-79
2021/12/05 16:14:56;;;;;;;119.43;50.93;;;1.10;99.90;;;;;;10550627;28;20202;-78
2021/12/05 16:20:22;;;;;;;120.60;48.80;;;1.10;99.90;;;;;;10533448;28;20234;-79
2021/12/05 16:25:46;;;;;;;116.50;52.23;;;1.10;99.90;;;;;;10564603;28;20205;-79
2021/12/05 16:31:16;;;;;;;102.03;42.07;;;1.10;99.90;;;;;;10527209;28;20240;-78
2021/12/05 16:36:45;;;;;;;118.93;48.93;;;1.10;99.90;;;;;;10549120;28;20192;-80
2021/12/05 16:42:11;;;;;;;118.17;47.40;;;1.10;99.90;;;;;;10549170;28;20206;-79
2021/12/05 16:47:35;;;;;;;76.77;37.80;;;1.10;99.90;;;;;;10546110;28;20285;-79
2021/12/05 16:52:57;;;;;;;79.73;39.43;;;1.10;99.90;;;;;;10534784;28;20197;-78
2021/12/05 16:58:20;;;;;;;60.70;33.23;;;1.10;99.90;;;;;;10543807;28;20229;-79
2021/12/05 17:03:44;;;;;;;65.00;34.30;;;1.10;99.90;;;;;;10548699;28;20231;-79
2021/12/05 17:09:11;;;;;;;56.37;29.70;;;1.10;99.90;;;;;;10563325;28;20209;-79
2021/12/05 17:14:33;;;;;;;56.73;30.27;;;1.10;99.90;;;;;;10531068;28;20213;-78
2021/12/05 17:19:55;;;;;;;53.67;28.63;;;1.20;99.90;;;;;;10544906;28;20234;-79
2021/12/05 17:25:48;;;;;;;56.37;29.87;;;1.20;99.90;;;;;;10521884;28;20220;-79
2021/12/05 17:31:12;;;;;;;55.03;30.30;;;1.30;99.90;;;;;;10540428;28;20374;-78
2021/12/05 17:36:50;;;;;;;50.63;28.37;;;1.30;99.90;;;;;;10537894;28;20202;-79
2021/12/05 17:42:19;;;;;;;54.23;31.03;;;1.20;99.90;;;;;;10562119;28;20205;-78
2021/12/05 17:47:41;;;;;;;66.10;36.13;;;1.30;99.90;;;;;;10529414;28;20210;-79
2021/12/05 17:53:03;;;;;;;61.17;35.17;;;1.30;99.90;;;;;;10532109;28;20440;-79
2021/12/05 17:58:53;;;;;;;55.30;31.97;;;1.30;99.90;;;;;;10529137;28;20234;-78
2021/12/05 18:04:17;;;;;;;58.43;31.10;;;1.30;99.90;;;;;;10515419;28;20198;-80
2021/12/05 18:09:39;;;;;;;59.23;32.33;;;1.30;99.90;;;;;;10543452;28;20199;-79
2021/12/05 18:15:14;;;;;;;72.67;37.50;;;1.40;99.90;;;;;;10529634;28;20194;-79
2021/12/05 18:20:37;;;;;;;66.10;34.10;;;1.50;99.90;;;;;;10528639;28;20470;-78
2021/12/05 18:26:00;;;;;;;52.10;28.27;;;1.50;99.90;;;;;;10543332;28;20232;-79
2021/12/05 18:31:26;;;;;;;52.03;28.53;;;1.50;99.90;;;;;;10561268;28;20541;-79
2021/12/05 18:36:50;;;;;;;52.23;27.40;;;1.50;99.90;;;;;;10541473;28;20457;-79
2021/12/05 18:42:14;;;;;;;50.47;26.40;;;1.60;99.90;;;;;;10553220;28;20228;-79
2021/12/05 18:47:36;;;;;;;51.63;25.97;;;1.60;99.90;;;;;;10553400;28;20406;-79
2021/12/05 18:52:58;;;;;;;67.17;28.50;;;1.70;99.90;;;;;;10522677;28;20453;-79
2021/12/05 18:58:23;;;;;;;92.87;38.50;;;1.70;99.90;;;;;;10550290;28;20245;-79
2021/12/05 19:14:55;;;;;;;48.93;23.97;;;1.70;99.90;;;;;;10550022;28;20205;-79
2021/12/05 19:20:21;;;;;;;46.50;23.13;;;1.70;99.90;;;;;;10548773;28;20218;-78
2021/12/05 19:25:43;;;;;;;40.73;21.50;;;1.80;99.90;;;;;;10521044;28;20225;-78
2021/12/05 19:31:06;;;;;;;36.03;20.13;;;1.80;99.90;;;;;;10535318;28;20195;-78
2021/12/05 19:36:30;;;;;;;36.00;19.73;;;1.80;99.90;;;;;;10567261;28;20239;-79
2021/12/05 19:41:54;;;;;;;31.30;18.87;;;1.70;99.90;;;;;;10533978;28;20242;-78
2021/12/05 19:47:16;;;;;;;30.47;19.40;;;1.80;99.90;;;;;;10536537;28;20214;-79
2021/12/05 19:52:39;;;;;;;35.27;20.07;;;1.80;99.90;;;;;;10551161;28;20265;-78
2021/12/05 19:58:02;;;;;;;37.40;20.10;;;1.90;99.90;;;;;;10548187;28;20297;-79
2021/12/05 20:03:25;;;;;;;49.23;26.17;;;1.80;99.90;;;;;;10565985;28;20239;-79
2021/12/05 20:08:49;;;;;;;40.67;22.37;;;1.80;99.90;;;;;;10544065;28;20203;-79
2021/12/05 20:14:13;;;;;;;52.37;25.90;;;1.70;99.90;;;;;;10565593;28;20221;-79
2021/12/05 20:19:35;;;;;;;52.17;26.10;;;1.80;99.90;;;;;;10549555;28;20543;-79
2021/12/05 20:24:58;;;;;;;49.83;23.60;;;1.80;99.90;;;;;;10565198;28;20200;-79
2021/12/05 20:30:22;;;;;;;41.43;22.57;;;1.80;99.90;;;;;;10532600;28;20424;-79
2021/12/05 20:35:45;;;;;;;51.20;24.40;;;1.70;99.90;;;;;;10564625;28;20252;-79
2021/12/05 20:41:08;;;;;;;37.70;19.60;;;1.70;99.90;;;;;;10546250;28;20260;-79
2021/12/05 20:46:31;;;;;;;41.77;21.47;;;1.70;99.90;;;;;;10511886;28;20206;-79
2021/12/05 20:51:53;;;;;;;40.13;21.17;;;1.70;99.90;;;;;;10564080;28;20201;-79
2021/12/05 20:57:16;;;;;;;33.70;19.93;;;1.70;99.90;;;;;;10563824;28;20198;-79
2021/12/05 21:02:40;;;;;;;35.73;19.10;;;1.70;99.90;;;;;;10544692;28;20282;-79
2021/12/05 21:08:04;;;;;;;33.03;17.77;;;1.70;99.90;;;;;;10563473;28;20439;-79
2021/12/05 21:13:27;;;;;;;46.93;23.50;;;1.70;99.90;;;;;;10548086;28;20194;-78
2021/12/05 21:18:49;;;;;;;43.97;23.53;;;1.70;99.90;;;;;;10544223;28;20283;-79
2021/12/05 21:24:12;;;;;;;43.80;23.30;;;1.70;99.90;;;;;;10562913;28;20195;-79
2021/12/05 21:29:34;;;;;;;46.17;22.37;;;1.70;99.90;;;;;;10530541;28;20206;-78
2021/12/05 21:35:17;;;;;;;38.57;19.13;;;1.70;99.90;;;;;;10544520;28;20209;-79
2021/12/05 21:40:46;;;;;;;36.97;18.63;;;1.80;99.90;;;;;;10541917;28;20260;-79
2021/12/05 21:46:11;;;;;;;35.47;19.20;;;1.90;99.90;;;;;;10529364;28;20207;-79
2021/12/05 21:51:33;;;;;;;38.40;21.13;;;1.90;99.90;;;;;;10529466;28;20500;-79
2021/12/05 21:56:55;;;;;;;32.93;19.13;;;2.00;99.90;;;;;;10543726;28;20222;-79
2021/12/05 22:02:18;;;;;;;32.53;18.70;;;1.90;99.90;;;;;;10543920;28;20268;-78
2021/12/05 22:07:40;;;;;;;38.67;19.43;;;2.00;99.90;;;;;;10543731;28;20277;-79
2021/12/05 22:13:03;;;;;;;43.03;23.20;;;1.90;99.90;;;;;;10544474;28;20218;-79
2021/12/05 22:18:25;;;;;;;43.60;22.07;;;1.80;99.90;;;;;;10548955;28;20222;-78
2021/12/05 22:23:56;;;;;;;39.33;19.73;;;1.80;99.90;;;;;;10543414;28;20285;-79
2021/12/05 22:29:18;;;;;;;41.03;19.33;;;1.80;99.90;;;;;;10546065;28;20194;-78
2021/12/05 22:34:44;;;;;;;41.17;18.40;;;1.70;99.90;;;;;;10575215;28;20204;-79
2021/12/05 22:40:10;;;;;;;45.53;17.97;;;1.60;99.90;;;;;;10531329;28;20269;-79
2021/12/05 22:45:32;;;;;;;55.70;21.97;;;1.50;99.90;;;;;;10526752;28;20240;-79
2021/12/05 22:50:55;;;;;;;47.10;20.70;;;1.50;99.90;;;;;;10497415;28;20202;-79
2021/12/05 22:56:17;;;;;;;48.77;19.77;;;1.60;99.90;;;;;;10532404;28;20206;-79
2021/12/05 23:01:40;;;;;;;41.97;15.83;;;1.60;99.90;;;;;;10531346;28;20253;-78
2021/12/05 23:07:03;;;;;;;34.47;13.97;;;1.60;99.90;;;;;;10532605;28;20218;-79
2021/12/05 23:12:25;;;;;;;26.83;11.87;;;1.60;99.90;;;;;;10531255;28;20198;-79
2021/12/05 23:17:47;;;;;;;38.40;17.53;;;1.50;99.90;;;;;;10531552;28;20211;-79
2021/12/05 23:23:09;;;;;;;37.97;14.57;;;1.50;99.90;;;;;;10502888;28;20199;-78
2021/12/05 23:28:32;;;;;;;30.23;11.57;;;1.50;99.90;;;;;;10504054;28;20420;-79
2021/12/05 23:33:55;;;;;;;24.97;10.87;;;1.60;99.90;;;;;;10525350;28;20498;-79
2021/12/05 23:39:19;;;;;;;33.70;11.63;;;1.50;99.90;;;;;;10546557;28;20245;-79
2021/12/05 23:44:41;;;;;;;35.57;12.83;;;1.50;99.90;;;;;;10551894;28;20217;-78
2021/12/05 23:50:07;;;;;;;42.60;15.53;;;1.50;99.90;;;;;;10546455;28;20383;-79
2021/12/05 23:55:30;;;;;;;31.73;12.00;;;1.50;99.90;;;;;;10566418;28;20247;-78
